KCLW/CLW METAR and TAF weather

Enter ICAO airport designator
Station Type Date Time Source
KCLW METAR 2020/01/22 12:15 UTC NOAA

KCLW 221215Z AUTO 01004KT 10SM CLR 01/M07 A3022 RMK AO2


Station Type Date Time Source
KCLW Decoded METAR 2020/01/22 12:15 UTC NOAA

Station name not available
Jan 22, 2020 - 07:15 AM EST / 2020.01.22 1215 UTC
Wind: from the N (010 degrees) at 5 MPH (4 KT):0
Visibility: 10 mile(s):0
Sky conditions: clear
Temperature: 33 F (1 C)
Windchill: 28 F (-2 C):1
Dew Point: 19 F (-7 C)
Relative Humidity: 55%
Pressure (altimeter): 30.22 in. Hg (1023 hPa)
ob: KCLW 221215Z AUTO 01004KT 10SM CLR 01/M07 A3022 RMK AO2
cycle: 12

Station Type Date Time Source
KCLW TAF UTC NOAA

Error!

Example: see airport list